Time;durP1;ratioP1;P1;durP2;ratioP2;P2;SDS_P1;SDS_P2;PMS_P1;PMS_P2;Temp;Humidity;BMP_temperature;BMP_pressure;BME280_temperature;BME280_humidity;BME280_pressure;Samples;Min_cycle;Max_cycle;Signal;HPM_P1;HPM_P2
2023/06/28 00:00:48;;;;;;;6.38;3.60;;;;;;;16.25;100.00;101934.75;5203540;28;20101;-69
2023/06/28 00:03:18;;;;;;;6.95;3.67;;;;;;;16.25;100.00;101922.03;5203362;28;20028;-69
2023/06/28 00:05:49;;;;;;;7.60;3.53;;;;;;;16.28;100.00;101919.00;5202964;28;20021;-70
2023/06/28 00:08:19;;;;;;;10.25;3.70;;;;;;;16.23;100.00;101918.69;5203307;28;20553;-69
2023/06/28 00:10:50;;;;;;;11.20;3.90;;;;;;;16.18;100.00;101920.25;5203160;28;20532;-70
2023/06/28 00:13:21;;;;;;;18.45;4.22;;;;;;;16.15;100.00;101926.84;5203188;28;20029;-70
2023/06/28 00:15:51;;;;;;;9.07;4.00;;;;;;;16.17;100.00;101907.72;5201527;28;20028;-69
2023/06/28 00:18:21;;;;;;;12.57;4.35;;;;;;;16.17;100.00;101923.97;5202757;28;20049;-69
2023/06/28 00:20:52;;;;;;;12.35;4.10;;;;;;;16.17;100.00;101919.41;5202580;28;20109;-69
2023/06/28 00:23:22;;;;;;;14.80;5.38;;;;;;;16.18;100.00;101922.94;5202476;28;20045;-70
2023/06/28 00:25:53;;;;;;;9.82;3.95;;;;;;;16.19;100.00;101928.19;5202020;28;20184;-70
2023/06/28 00:28:23;;;;;;;12.88;4.53;;;;;;;16.24;100.00;101928.50;5202626;28;20025;-70
2023/06/28 00:30:54;;;;;;;10.70;4.03;;;;;;;16.27;100.00;101925.44;5203875;28;20041;-70
2023/06/28 00:33:24;;;;;;;9.05;4.00;;;;;;;16.28;100.00;101924.41;5207018;28;20494;-70
2023/06/28 00:35:55;;;;;;;14.35;4.78;;;;;;;16.27;100.00;101924.59;5205910;28;20406;-69
2023/06/28 00:38:25;;;;;;;7.00;3.83;;;;;;;16.25;100.00;101929.31;5206634;28;20029;-69
2023/06/28 00:40:55;;;;;;;9.07;3.95;;;;;;;16.28;100.00;101928.97;5206771;28;20509;-70
2023/06/28 00:43:26;;;;;;;12.25;4.10;;;;;;;16.27;100.00;101922.72;5206937;28;20460;-70
2023/06/28 00:45:56;;;;;;;12.95;4.80;;;;;;;16.24;100.00;101928.50;5206175;28;20056;-70
2023/06/28 00:48:27;;;;;;;9.60;4.15;;;;;;;16.22;100.00;101919.72;5206322;28;20036;-70
2023/06/28 00:50:58;;;;;;;7.65;4.43;;;;;;;16.16;100.00;101920.41;5206532;28;20025;-69
2023/06/28 00:53:30;;;;;;;11.60;4.80;;;;;;;16.13;100.00;101922.63;5206733;28;20025;-70
2023/06/28 00:56:00;;;;;;;11.90;4.50;;;;;;;16.09;100.00;101919.44;5205958;28;20108;-69
2023/06/28 00:58:31;;;;;;;12.73;4.45;;;;;;;16.07;100.00;101923.34;5206178;28;20028;-69
2023/06/28 01:01:01;;;;;;;13.50;4.82;;;;;;;16.05;100.00;101920.78;5206496;28;20041;-70
2023/06/28 01:03:32;;;;;;;11.65;4.75;;;;;;;16.06;100.00;101917.06;5207035;28;20034;-70
2023/06/28 01:06:04;;;;;;;11.70;4.80;;;;;;;16.07;100.00;101916.06;5206629;28;20100;-70
2023/06/28 01:08:35;;;;;;;10.98;4.25;;;;;;;16.11;100.00;101914.66;5206796;28;20087;-70
2023/06/28 01:11:06;;;;;;;11.00;4.47;;;;;;;16.12;100.00;101916.38;5206464;28;20033;-70
2023/06/28 01:13:37;;;;;;;10.80;4.60;;;;;;;16.09;100.00;101907.75;5206786;28;20022;-70
2023/06/28 01:16:08;;;;;;;10.48;5.18;;;;;;;16.12;100.00;101910.97;5211989;28;20025;-71
2023/06/28 01:18:59;;;;;;;13.88;4.40;;;;;;;16.16;100.00;101903.31;5202132;28;20056;-71
2023/06/28 01:21:35;;;;;;;10.57;4.82;;;;;;;16.15;100.00;101894.34;5206132;28;20030;-70
2023/06/28 01:24:10;;;;;;;8.73;4.35;;;;;;;16.17;100.00;101908.56;5205962;28;20025;-70
2023/06/28 01:26:41;;;;;;;12.30;4.18;;;;;;;16.17;100.00;101903.16;5205651;28;20033;-71
2023/06/28 01:29:26;;;;;;;13.93;4.38;;;;;;;16.20;100.00;101901.94;5206097;28;20029;-70
2023/06/28 01:31:57;;;;;;;10.80;4.78;;;;;;;16.20;100.00;101899.25;5205579;28;20084;-70
2023/06/28 01:34:29;;;;;;;12.48;4.40;;;;;;;16.22;100.00;101905.34;5205998;28;20032;-70
2023/06/28 01:37:01;;;;;;;18.20;4.40;;;;;;;16.21;100.00;101901.75;5205162;28;20029;-70
2023/06/28 01:39:33;;;;;;;11.75;4.70;;;;;;;16.19;100.00;101898.41;5205890;28;20031;-70
2023/06/28 01:42:04;;;;;;;16.05;4.97;;;;;;;16.21;100.00;101901.75;5205968;28;20045;-70
2023/06/28 01:44:36;;;;;;;15.30;4.57;;;;;;;16.24;100.00;101906.00;5205455;28;20072;-71
2023/06/28 01:47:07;;;;;;;8.40;4.68;;;;;;;16.25;100.00;101894.97;5205295;28;20446;-70
2023/06/28 01:49:38;;;;;;;13.30;4.50;;;;;;;16.27;100.00;101900.22;5205423;28;20025;-70
2023/06/28 01:52:08;;;;;;;13.55;4.85;;;;;;;16.27;100.00;101898.38;5205667;28;20033;-70
2023/06/28 01:54:39;;;;;;;11.25;4.50;;;;;;;16.27;100.00;101897.53;5205392;28;20720;-70
2023/06/28 01:57:11;;;;;;;15.63;4.70;;;;;;;16.23;100.00;101902.44;5205215;28;20026;-69
2023/06/28 01:59:42;;;;;;;15.00;4.50;;;;;;;16.22;100.00;101902.63;5205474;28;20108;-69
2023/06/28 02:02:13;;;;;;;11.48;4.32;;;;;;;16.23;100.00;101896.19;5205564;28;20025;-69
2023/06/28 02:04:43;;;;;;;10.45;4.18;;;;;;;16.21;100.00;101890.94;5205406;28;20021;-69
2023/06/28 02:07:14;;;;;;;12.80;4.10;;;;;;;16.23;100.00;101888.06;5204638;28;20030;-69
2023/06/28 02:09:45;;;;;;;16.13;4.80;;;;;;;16.23;100.00;101883.50;5205480;28;20052;-69
2023/06/28 02:12:15;;;;;;;12.85;4.30;;;;;;;16.21;100.00;101882.81;5205195;28;20064;-69
2023/06/28 02:14:46;;;;;;;15.90;4.70;;;;;;;16.19;100.00;101875.91;5205450;28;20028;-69
2023/06/28 02:17:17;;;;;;;10.00;4.05;;;;;;;16.15;100.00;101878.09;5204375;28;20422;-69
2023/06/28 02:19:48;;;;;;;13.35;4.90;;;;;;;16.12;100.00;101870.38;5204902;28;20105;-69
2023/06/28 02:22:19;;;;;;;16.27;4.80;;;;;;;16.13;100.00;101872.03;5204834;28;20103;-68
2023/06/28 02:24:49;;;;;;;11.38;4.45;;;;;;;16.12;100.00;101873.06;5205158;28;20022;-68
2023/06/28 02:27:20;;;;;;;11.13;4.75;;;;;;;16.12;100.00;101872.22;5204523;28;20032;-69
2023/06/28 02:29:50;;;;;;;14.77;5.45;;;;;;;16.13;100.00;101868.50;5205193;28;20383;-69
2023/06/28 02:32:21;;;;;;;10.90;4.90;;;;;;;16.16;100.00;101862.72;5204531;28;20024;-69
2023/06/28 02:34:51;;;;;;;16.10;5.05;;;;;;;16.13;100.00;101863.91;5204887;28;20034;-70
2023/06/28 02:37:22;;;;;;;12.70;5.22;;;;;;;16.15;100.00;101866.44;5204125;28;20120;-69
2023/06/28 02:39:52;;;;;;;8.82;3.88;;;;;;;16.17;100.00;101872.53;5204947;28;20029;-69
2023/06/28 02:42:23;;;;;;;12.02;5.25;;;;;;;16.22;100.00;101870.97;5204825;28;20013;-69
2023/06/28 02:44:53;;;;;;;12.02;4.68;;;;;;;16.19;100.00;101863.19;5204312;28;20056;-69
2023/06/28 02:47:24;;;;;;;20.02;6.32;;;;;;;16.22;100.00;101868.28;5203853;28;20026;-70
2023/06/28 02:49:54;;;;;;;14.50;5.38;;;;;;;16.24;100.00;101855.38;5204584;28;20497;-69
2023/06/28 02:52:24;;;;;;;10.38;4.50;;;;;;;16.33;100.00;101864.31;5204409;28;20056;-69
2023/06/28 02:54:55;;;;;;;9.35;4.72;;;;;;;16.38;100.00;101858.34;5203883;28;20115;-69
2023/06/28 02:57:26;;;;;;;19.25;5.70;;;;;;;16.39;100.00;101862.75;5203442;28;20430;-69
2023/06/28 02:59:56;;;;;;;19.20;5.60;;;;;;;16.39;100.00;101863.59;5204283;28;20100;-69
2023/06/28 03:02:27;;;;;;;13.48;5.90;;;;;;;16.39;100.00;101860.03;5204204;28;20578;-69
2023/06/28 03:04:57;;;;;;;15.57;6.63;;;;;;;16.39;100.00;101855.47;5204247;28;20164;-69
2023/06/28 03:07:28;;;;;;;11.88;6.10;;;;;;;16.37;100.00;101859.38;5203332;28;20025;-69
2023/06/28 03:09:58;;;;;;;9.55;5.20;;;;;;;16.35;100.00;101851.41;5203883;28;20055;-69
2023/06/28 03:12:29;;;;;;;17.38;5.50;;;;;;;16.35;100.00;101859.53;5203907;28;20026;-69
2023/06/28 03:15:00;;;;;;;14.90;5.43;;;;;;;16.33;100.00;101856.19;5204151;28;20021;-69
2023/06/28 03:17:30;;;;;;;14.68;5.50;;;;;;;16.33;100.00;101855.34;5203010;28;20071;-69
2023/06/28 03:20:01;;;;;;;17.17;5.90;;;;;;;16.35;100.00;101859.53;5203970;28;20030;-69
2023/06/28 03:22:31;;;;;;;13.60;5.72;;;;;;;16.34;100.00;101854.31;5203360;28;20059;-69
2023/06/28 03:25:02;;;;;;;14.68;5.28;;;;;;;16.29;100.00;101854.84;5203704;28;20484;-69
2023/06/28 03:27:32;;;;;;;14.05;6.13;;;;;;;16.24;100.00;101849.13;5203180;28;20037;-69
2023/06/28 03:30:03;;;;;;;13.38;5.55;;;;;;;16.24;100.00;101854.53;5203887;28;20108;-69
2023/06/28 03:32:34;;;;;;;12.52;5.57;;;;;;;16.28;100.00;101845.88;5203544;28;20029;-69
2023/06/28 03:35:05;;;;;;;16.88;5.65;;;;;;;16.25;100.00;101843.53;5203599;28;20095;-70
2023/06/28 03:37:35;;;;;;;14.43;6.03;;;;;;;16.23;100.00;101844.75;5203038;28;20502;-69
2023/06/28 03:40:07;;;;;;;13.20;5.65;;;;;;;16.29;100.00;101849.44;5203710;28;20033;-69
2023/06/28 03:42:38;;;;;;;11.85;4.85;;;;;;;16.30;100.00;101843.00;5203686;28;20025;-69
2023/06/28 03:45:09;;;;;;;18.45;5.88;;;;;;;16.33;100.00;101841.81;5203304;28;20098;-70
2023/06/28 03:47:39;;;;;;;9.25;5.60;;;;;;;16.33;100.00;101839.94;5202679;28;20033;-70
2023/06/28 03:50:10;;;;;;;15.00;5.05;;;;;;;16.33;100.00;101841.81;5203524;28;20022;-70
2023/06/28 03:52:40;;;;;;;18.80;5.75;;;;;;;16.34;100.00;101841.63;5203182;28;20032;-70
2023/06/28 03:55:11;;;;;;;15.75;5.80;;;;;;;16.31;100.00;101840.13;5203496;28;20025;-70
2023/06/28 03:57:42;;;;;;;13.68;5.05;;;;;;;16.34;100.00;101838.91;5202380;28;20033;-69
2023/06/28 04:00:12;;;;;;;21.55;6.10;;;;;;;16.32;100.00;101838.25;5203567;28;20508;-69
2023/06/28 04:02:43;;;;;;;11.63;4.85;;;;;;;16.32;100.00;101843.69;5203198;28;20658;-69
2023/06/28 04:05:13;;;;;;;12.15;5.68;;;;;;;16.31;100.00;101844.66;5202506;28;20025;-69
2023/06/28 04:07:44;;;;;;;13.73;4.90;;;;;;;16.31;100.00;101837.41;5202514;28;20474;-69
2023/06/28 04:10:14;;;;;;;13.60;5.22;;;;;;;16.30;100.00;101835.72;5203040;28;20029;-69
2023/06/28 04:12:45;;;;;;;11.88;5.18;;;;;;;16.34;100.00;101835.38;5202920;28;20025;-69
2023/06/28 04:15:15;;;;;;;17.52;6.10;;;;;;;16.33;100.00;101842.66;5203162;28;20055;-69
2023/06/28 04:17:45;;;;;;;9.93;4.18;;;;;;;16.37;100.00;101845.84;5202376;28;20112;-69
2023/06/28 04:20:16;;;;;;;14.13;5.45;;;;;;;16.37;100.00;101843.97;5203001;28;20021;-69
2023/06/28 04:22:46;;;;;;;10.63;5.13;;;;;;;16.37;100.00;101845.84;5202655;28;20052;-69
2023/06/28 04:25:17;;;;;;;12.98;5.13;;;;;;;16.39;100.00;101835.66;5202936;28;20026;-69
2023/06/28 04:27:47;;;;;;;14.57;4.68;;;;;;;16.40;100.00;101843.59;5202793;28;20029;-69
2023/06/28 04:30:18;;;;;;;11.80;4.28;;;;;;;16.40;100.00;101840.06;5202876;28;20025;-70
2023/06/28 04:32:48;;;;;;;10.23;4.65;;;;;;;16.37;100.00;101833.16;5203077;28;20155;-70
2023/06/28 04:35:21;;;;;;;10.95;4.63;;;;;;;16.38;100.00;101833.97;5202439;28;20041;-70
2023/06/28 04:37:51;;;;;;;14.23;5.10;;;;;;;16.37;100.00;101835.00;5202241;28;20091;-70
2023/06/28 04:40:22;;;;;;;13.55;5.03;;;;;;;16.38;100.00;101836.69;5202810;28;20029;-70
2023/06/28 04:42:52;;;;;;;15.52;5.07;;;;;;;16.41;100.00;101836.31;5193389;28;20036;-70
2023/06/28 04:45:35;;;;;;;13.00;5.65;;;;;;;16.42;100.00;101841.56;5202281;28;20029;-69
2023/06/28 04:48:06;;;;;;;17.88;5.13;;;;;;;16.39;100.00;101841.91;5234305;28;20037;-69
2023/06/28 04:50:37;;;;;;;12.35;4.60;;;;;;;16.39;100.00;101839.22;5202742;28;20032;-69
2023/06/28 04:53:08;;;;;;;12.32;4.40;;;;;;;16.40;100.00;101840.06;5202586;28;20022;-70
2023/06/28 04:55:38;;;;;;;12.30;4.20;;;;;;;16.43;100.00;101834.28;5202580;28;20037;-69
2023/06/28 04:58:09;;;;;;;14.18;4.88;;;;;;;16.46;100.00;101842.03;5201964;28;20025;-70
2023/06/28 05:00:39;;;;;;;10.77;3.92;;;;;;;16.47;100.00;101839.16;5202616;28;20051;-70
2023/06/28 05:03:10;;;;;;;12.45;4.55;;;;;;;16.48;100.00;101840.00;5202589;28;20021;-70
2023/06/28 05:05:42;;;;;;;14.88;4.63;;;;;;;16.49;100.00;101837.09;5201928;28;20094;-70
2023/06/28 05:08:13;;;;;;;12.07;4.55;;;;;;;16.49;100.00;101833.56;5202468;28;20398;-70
2023/06/28 05:10:44;;;;;;;16.35;4.60;;;;;;;16.53;100.00;101841.13;5202293;28;20021;-70
2023/06/28 05:13:14;;;;;;;9.60;4.18;;;;;;;16.55;100.00;101835.53;5202476;28;20029;-70
2023/06/28 05:15:45;;;;;;;13.45;3.88;;;;;;;16.56;100.00;101839.91;5202104;28;20026;-70
2023/06/28 05:18:15;;;;;;;8.48;3.92;;;;;;;16.61;100.00;101837.50;5205395;28;20363;-70
2023/06/28 05:20:46;;;;;;;9.63;4.13;;;;;;;16.62;100.00;101844.63;5206167;28;20091;-70
2023/06/28 05:23:20;;;;;;;13.07;4.53;;;;;;;16.67;100.00;101838.66;5205863;28;20032;-70
2023/06/28 05:25:51;;;;;;;9.52;4.18;;;;;;;16.66;100.00;101837.81;5205586;28;20132;-71
2023/06/28 05:28:21;;;;;;;11.52;4.10;;;;;;;16.68;100.00;101835.78;5205863;28;20507;-71
2023/06/28 05:30:52;;;;;;;9.95;3.90;;;;;;;16.69;100.00;101839.31;5206411;28;20041;-70
2023/06/28 05:33:22;;;;;;;10.20;4.45;;;;;;;16.69;100.00;101842.03;5205765;28;20128;-70
2023/06/28 05:35:53;;;;;;;10.98;4.63;;;;;;;16.66;100.00;101843.22;5205454;28;20471;-70
2023/06/28 05:38:23;;;;;;;12.65;4.15;;;;;;;16.73;100.00;101836.09;5205710;28;20036;-70
2023/06/28 05:40:55;;;;;;;11.35;4.65;;;;;;;16.81;100.00;101849.56;5206140;28;20032;-70
2023/06/28 05:43:26;;;;;;;11.95;4.35;;;;;;;16.80;100.00;101850.59;5205884;28;20534;-70
2023/06/28 05:45:56;;;;;;;7.95;4.20;;;;;;;16.77;100.00;101848.25;5205330;28;20057;-71
2023/06/28 05:48:27;;;;;;;8.68;3.78;;;;;;;16.73;100.00;101833.38;5205293;28;20502;-70
2023/06/28 05:50:58;;;;;;;12.98;3.85;;;;;;;16.77;100.00;101839.28;5205749;28;20017;-70
2023/06/28 05:53:29;;;;;;;10.25;3.83;;;;;;;16.78;100.00;101841.81;5205530;28;20036;-70
2023/06/28 05:55:59;;;;;;;15.32;4.20;;;;;;;16.78;100.00;101841.81;5205227;28;20025;-70
2023/06/28 05:58:30;;;;;;;10.35;3.30;;;;;;;16.80;100.00;101823.47;5205346;28;20053;-70
2023/06/28 06:01:01;;;;;;;12.27;4.47;;;;;;;16.89;100.00;101824.25;5205687;28;20052;-70
2023/06/28 06:03:31;;;;;;;19.83;4.45;;;;;;;16.95;100.00;101826.22;5205552;28;20035;-71
2023/06/28 06:06:02;;;;;;;7.72;3.70;;;;;;;17.01;100.00;101830.06;5204900;28;20055;-70
2023/06/28 06:08:32;;;;;;;10.32;3.70;;;;;;;17.05;100.00;101812.41;5205245;28;20060;-70
2023/06/28 06:11:03;;;;;;;11.93;4.00;;;;;;;17.06;100.00;101819.50;5219890;28;20025;-70
2023/06/28 06:13:33;;;;;;;9.32;4.00;;;;;;;17.15;100.00;101823.81;5205567;28;20037;-70
2023/06/28 06:16:04;;;;;;;15.98;4.00;;;;;;;17.20;100.00;101823.28;5204773;28;20033;-70
2023/06/28 06:18:36;;;;;;;18.75;4.65;;;;;;;17.28;100.00;101825.91;5204757;28;20032;-70
2023/06/28 06:21:07;;;;;;;13.15;4.50;;;;;;;17.40;100.00;101826.25;5205460;28;20360;-70
2023/06/28 06:23:37;;;;;;;9.23;3.70;;;;;;;17.46;100.00;101822.78;5204700;28;20052;-70
2023/06/28 06:26:08;;;;;;;17.02;4.57;;;;;;;17.58;100.00;101821.31;5204773;28;20026;-70
2023/06/28 06:28:38;;;;;;;7.80;3.83;;;;;;;17.67;100.00;101816.59;5203941;28;20025;-70
2023/06/28 06:31:13;;;;;;;11.23;3.60;;;;;;;17.75;100.00;101817.38;5205451;28;20025;-70
2023/06/28 06:33:44;;;;;;;13.90;4.53;;;;;;;17.81;100.00;101819.31;5201410;28;20040;-70
2023/06/28 06:36:14;;;;;;;10.27;3.45;;;;;;;17.86;100.00;101818.75;5192377;28;20030;-70
2023/06/28 06:38:45;;;;;;;11.88;3.97;;;;;;;17.92;100.00;101815.25;5201638;28;20021;-70
2023/06/28 06:41:15;;;;;;;9.65;3.85;;;;;;;17.97;100.00;101825.56;5235452;28;20171;-70
2023/06/28 06:43:46;;;;;;;10.98;3.78;;;;;;;17.94;100.00;101824.06;5203440;28;20026;-71
2023/06/28 06:46:18;;;;;;;9.50;4.35;;;;;;;17.99;100.00;101823.50;5202800;28;20497;-69
2023/06/28 06:48:49;;;;;;;6.45;3.28;;;;;;;18.06;100.00;101822.53;5202610;28;20033;-70
2023/06/28 06:51:19;;;;;;;10.07;3.90;;;;;;;18.10;100.00;101828.44;5203230;28;20475;-70
2023/06/28 06:53:50;;;;;;;13.63;3.90;;;;;;;18.12;100.00;101818.19;5202988;28;20029;-70
2023/06/28 06:56:22;;;;;;;12.02;4.32;;;;;;;18.08;100.00;101823.19;5202476;28;20025;-70
2023/06/28 06:58:52;;;;;;;10.60;3.47;;;;;;;18.15;100.00;101830.56;5217730;28;20453;-70
2023/06/28 07:01:23;;;;;;;13.30;3.92;;;;;;;18.13;100.00;101833.50;5202958;28;20112;-70
2023/06/28 07:03:55;;;;;;;13.70;4.30;;;;;;;18.11;100.00;101830.09;5202911;28;20087;-72
2023/06/28 07:06:26;;;;;;;11.18;3.97;;;;;;;18.26;100.00;101828.19;5202398;28;20429;-72
2023/06/28 07:08:57;;;;;;;10.63;4.00;;;;;;;18.31;100.00;101835.75;5202300;28;20120;-72
2023/06/28 07:11:28;;;;;;;12.48;3.92;;;;;;;18.41;100.00;101843.56;5202456;28;20025;-73
2023/06/28 07:13:58;;;;;;;9.10;3.95;;;;;;;18.46;100.00;101835.69;5202364;28;20018;-72
2023/06/28 07:16:28;;;;;;;11.48;3.65;;;;;;;18.52;100.00;101838.47;5202063;28;20082;-72
2023/06/28 07:18:59;;;;;;;14.50;3.92;;;;;;;18.57;100.00;101833.28;5202517;28;20494;-73
2023/06/28 07:21:29;;;;;;;9.77;3.92;;;;;;;18.62;100.00;101835.41;5202824;28;20577;-73
2023/06/28 07:24:00;;;;;;;12.32;4.50;;;;;;;18.62;100.00;101832.69;5187895;28;20032;-73
2023/06/28 07:26:30;;;;;;;9.20;3.90;;;;;;;18.73;100.00;101837.66;5202142;28;20515;-73
2023/06/28 07:29:01;;;;;;;17.40;4.65;;;;;;;18.81;100.00;101839.38;5202116;28;20030;-73
2023/06/28 07:31:31;;;;;;;10.02;3.72;;;;;;;18.96;100.00;101842.84;5202485;28;20029;-73
2023/06/28 07:34:04;;;;;;;8.90;3.42;;;;;;;19.14;100.00;101839.66;5198920;28;20036;-73
2023/06/28 07:36:34;;;;;;;14.43;3.53;;;;;;;19.23;100.00;101837.59;5200555;28;20379;-73
2023/06/28 07:39:05;;;;;;;15.25;4.55;;;;;;;19.22;100.00;101835.91;5201679;28;20032;-73
2023/06/28 07:41:35;;;;;;;10.93;4.10;;;;;;;19.19;100.00;101833.59;5201903;28;20021;-72
2023/06/28 07:44:06;;;;;;;7.53;3.90;;;;;;;19.35;100.00;101834.13;5202005;28;20021;-72
2023/06/28 07:46:36;;;;;;;13.73;4.10;;;;;;;19.65;100.00;101831.16;5201392;28;20425;-73
2023/06/28 07:49:07;;;;;;;10.00;4.15;;;;;;;20.05;100.00;101826.72;5200661;28;20072;-73
2023/06/28 07:51:37;;;;;;;10.48;3.90;;;;;;;20.54;100.00;101830.19;5201626;28;20108;-73
2023/06/28 07:54:08;;;;;;;15.45;3.85;;;;;;;21.04;100.00;101834.19;5201957;28;20115;-73
2023/06/28 07:56:38;;;;;;;10.48;3.50;;;;;;;21.37;100.00;101830.56;5200992;28;20025;-73
2023/06/28 07:59:09;;;;;;;8.68;3.63;;;;;;;21.63;100.00;101827.75;5202735;28;20056;-73
2023/06/28 08:01:39;;;;;;;13.43;3.90;;;;;;;21.63;100.00;101829.63;5213406;28;20044;-73
2023/06/28 08:04:10;;;;;;;14.27;4.07;;;;;;;21.39;100.00;101825.75;5222129;28;20032;-73
2023/06/28 08:06:40;;;;;;;11.77;4.32;;;;;;;20.99;100.00;101833.13;5221705;28;20135;-73
2023/06/28 08:09:11;;;;;;;12.82;4.70;;;;;;;20.92;100.00;101828.50;5220613;28;20044;-71
2023/06/28 08:11:41;;;;;;;15.15;4.00;;;;;;;20.98;100.00;101832.28;5222168;28;20028;-70
2023/06/28 08:14:12;;;;;;;11.63;4.45;;;;;;;20.70;100.00;101829.78;5219388;28;20033;-71
2023/06/28 08:16:45;;;;;;;9.93;3.83;;;;;;;20.71;100.00;101828.72;5221212;28;20036;-70
2023/06/28 08:19:15;;;;;;;12.13;4.03;;;;;;;20.56;100.00;101823.47;5220250;28;20025;-71
2023/06/28 08:21:46;;;;;;;12.02;3.65;;;;;;;20.61;100.00;101829.13;5215199;28;20021;-71
2023/06/28 08:24:17;;;;;;;11.85;4.15;;;;;;;20.83;100.00;101837.94;5218781;28;20071;-71
2023/06/28 08:26:47;;;;;;;10.30;3.83;;;;;;;20.94;100.00;101837.34;5221681;28;20025;-70
2023/06/28 08:29:18;;;;;;;15.23;4.38;;;;;;;21.06;100.00;101837.53;5221298;28;20028;-70
2023/06/28 08:31:49;;;;;;;15.80;4.13;;;;;;;21.31;100.00;101837.72;5221670;28;20044;-71
2023/06/28 08:34:20;;;;;;;7.10;3.20;;;;;;;21.62;100.00;101839.72;5222297;28;20051;-70
2023/06/28 08:36:50;;;;;;;12.75;3.83;;;;;;;21.88;100.00;101836.03;5220824;28;20036;-70
2023/06/28 08:39:21;;;;;;;9.20;3.72;;;;;;;22.15;100.00;101839.53;5221189;28;20029;-70
2023/06/28 08:41:52;;;;;;;16.27;3.90;;;;;;;21.87;100.00;101839.84;5221543;28;20047;-71
2023/06/28 08:44:25;;;;;;;18.00;4.20;;;;;;;21.80;100.00;101830.84;5221978;28;20029;-70
2023/06/28 08:46:56;;;;;;;11.45;3.50;;;;;;;22.04;100.00;101842.06;5221237;28;20029;-71
2023/06/28 08:49:28;;;;;;;18.48;3.88;;;;;;;22.23;100.00;101833.78;5220391;28;20025;-71
2023/06/28 08:51:59;;;;;;;9.27;3.80;;;;;;;22.30;100.00;101828.28;5222796;28;20025;-70
2023/06/28 08:54:31;;;;;;;10.20;3.78;;;;;;;22.46;100.00;101829.66;5226019;28;20127;-71
2023/06/28 08:57:02;;;;;;;9.38;3.47;;;;;;;22.71;100.00;101835.97;5225422;28;20025;-71
2023/06/28 08:59:32;;;;;;;14.23;4.72;;;;;;;22.67;100.00;101826.53;5225223;28;20036;-71
2023/06/28 09:02:03;;;;;;;8.98;3.53;;;;;;;22.71;100.00;101827.78;5225533;28;20029;-71
2023/06/28 09:04:35;;;;;;;11.95;3.88;;;;;;;22.74;100.00;101826.47;5225573;28;20065;-70
2023/06/28 09:07:06;;;;;;;16.20;4.72;;;;;;;22.85;100.00;101827.66;5225176;28;20020;-71
2023/06/28 09:09:39;;;;;;;7.25;3.60;;;;;;;22.90;100.00;101831.44;5224999;28;20028;-71
2023/06/28 09:12:11;;;;;;;13.30;4.40;;;;;;;22.72;100.00;101821.22;5225247;28;20026;-70
2023/06/28 09:14:42;;;;;;;10.60;3.63;;;;;;;22.77;100.00;101826.03;5225211;28;20032;-71
2023/06/28 09:17:12;;;;;;;8.32;4.10;;;;;;;23.05;100.00;101822.03;5225080;28;20020;-71
2023/06/28 09:19:43;;;;;;;13.25;4.40;;;;;;;23.45;100.00;101823.28;5225177;28;20027;-70
2023/06/28 09:22:15;;;;;;;13.65;3.65;;;;;;;23.61;100.00;101821.00;5222783;28;20497;-71
2023/06/28 09:24:49;;;;;;;12.77;3.78;;;;;;;23.93;100.00;101827.97;5224947;28;20075;-71
2023/06/28 09:27:19;;;;;;;13.65;4.43;;;;;;;24.04;100.00;101829.09;5225337;28;20027;-71
2023/06/28 09:30:08;;;;;;;12.02;4.50;;;;;;;24.15;100.00;101824.75;5223575;28;20123;-71
2023/06/28 09:32:39;;;;;;;11.43;4.18;;;;;;;24.33;100.00;101827.41;5223923;28;20025;-71
2023/06/28 09:35:10;;;;;;;11.40;4.35;;;;;;;24.62;100.00;101825.72;5223967;28;20383;-71
2023/06/28 09:37:41;;;;;;;15.25;4.50;;;;;;;24.65;100.00;101824.41;5224754;28;20167;-71
2023/06/28 09:40:15;;;;;;;8.57;4.38;;;;;;;24.55;100.00;101819.53;5224943;28;20027;-71
2023/06/28 09:42:47;;;;;;;11.65;4.45;;;;;;;24.90;100.00;101816.81;5225358;28;20373;-71
2023/06/28 09:45:37;;;;;;;12.60;5.00;;;;;;;24.91;100.00;101815.75;5223853;28;20486;-72
2023/06/28 09:48:07;;;;;;;14.98;5.28;;;;;;;25.36;100.00;101820.63;5228043;28;20036;-71
2023/06/28 09:50:42;;;;;;;16.60;5.53;;;;;;;25.87;100.00;101807.97;5221342;28;20032;-71
2023/06/28 09:53:15;;;;;;;11.88;5.18;;;;;;;26.64;100.00;101814.88;5224034;28;20106;-71
2023/06/28 09:55:49;;;;;;;18.48;6.00;;;;;;;26.67;100.00;101814.38;5224370;28;20218;-71
2023/06/28 09:58:21;;;;;;;12.52;6.68;;;;;;;26.59;100.00;101816.44;5224064;28;20029;-72
2023/06/28 10:00:52;;;;;;;13.30;5.28;;;;;;;26.41;100.00;101791.06;5223292;28;20025;-72
2023/06/28 10:03:25;;;;;;;16.33;5.97;;;;;;;26.73;100.00;101805.13;5223666;28;20021;-71
2023/06/28 10:05:56;;;;;;;17.70;5.78;;;;;;;26.95;100.00;101802.41;5223993;28;20013;-72
2023/06/28 10:08:27;;;;;;;11.20;5.25;;;;;;;27.04;100.00;101795.41;5223922;28;20047;-72
2023/06/28 10:10:58;;;;;;;16.75;5.55;;;;;;;26.25;100.00;101790.78;5224222;28;20032;-72
2023/06/28 10:13:29;;;;;;;14.13;5.78;;;;;;;25.96;100.00;101792.75;5223079;28;20086;-72
2023/06/28 10:16:18;;;;;;;14.43;6.47;;;;;;;26.41;100.00;101802.94;5223994;28;20025;-72
2023/06/28 10:18:49;;;;;;;17.77;6.30;;;;;;;26.48;100.00;101798.13;5219216;28;20433;-72
2023/06/28 10:21:20;;;;;;;9.80;5.40;;;;;;;26.74;100.00;101793.84;5224392;28;20035;-72
2023/06/28 10:23:52;;;;;;;15.02;5.05;;;;;;;27.06;100.00;101791.31;5224662;28;20036;-72
2023/06/28 10:26:24;;;;;;;18.40;6.25;;;;;;;26.63;100.00;101799.44;5224226;28;20025;-71
2023/06/28 10:28:55;;;;;;;14.73;5.95;;;;;;;26.48;100.00;101791.78;5223846;28;20143;-71
2023/06/28 10:31:26;;;;;;;13.85;5.63;;;;;;;26.24;100.00;101799.31;5223797;28;20099;-72
2023/06/28 10:33:59;;;;;;;13.77;6.30;;;;;;;26.50;100.00;101792.34;5224035;28;20035;-72
2023/06/28 10:36:30;;;;;;;18.65;7.00;;;;;;;26.71;100.00;101783.38;5223459;28;20025;-72
2023/06/28 10:39:00;;;;;;;19.55;7.78;;;;;;;26.89;100.00;101784.16;5223328;28;20021;-72
2023/06/28 10:41:31;;;;;;;16.52;6.43;;;;;;;26.66;100.00;101787.94;5223678;28;20524;-72
2023/06/28 10:44:04;;;;;;;14.02;6.32;;;;;;;26.55;100.00;101779.50;5223383;28;20411;-72
2023/06/28 10:46:36;;;;;;;16.25;6.40;;;;;;;26.14;100.00;101786.19;5223040;28;20029;-72
2023/06/28 10:49:07;;;;;;;16.77;7.45;;;;;;;26.31;100.00;101781.56;5222654;28;20048;-72
2023/06/28 10:51:38;;;;;;;16.65;7.80;;;;;;;26.82;100.00;101776.91;5223014;28;20028;-72
2023/06/28 10:54:14;;;;;;;16.20;7.18;;;;;;;27.10;100.00;101775.13;5223118;28;20028;-72
2023/06/28 10:57:22;;;;;;;15.82;6.57;;;;;;;26.95;100.00;101783.16;5215053;28;20037;-72
2023/06/28 10:59:52;;;;;;;22.08;8.43;;;;;;;26.56;100.00;101783.13;5221056;28;20027;-72
2023/06/28 11:02:55;;;;;;;18.20;7.88;;;;;;;26.07;100.00;101774.53;5222220;28;20021;-72
2023/06/28 11:05:45;;;;;;;18.65;7.88;;;;;;;26.25;100.00;101779.78;5220271;28;20024;-72
2023/06/28 11:08:16;;;;;;;17.90;7.90;;;;;;;26.69;100.00;101776.44;5221930;28;20039;-72
2023/06/28 11:10:53;;;;;;;17.45;8.15;;;;;;;26.65;100.00;101775.25;5221889;28;20068;-72
2023/06/28 11:13:42;;;;;;;19.95;8.13;;;;;;;26.48;100.00;101780.78;5221646;28;20025;-72
2023/06/28 11:16:18;;;;;;;18.17;8.25;;;;;;;26.49;100.00;101774.19;5220589;28;20420;-72
2023/06/28 11:18:50;;;;;;;17.83;7.68;;;;;;;26.48;100.00;101778.84;5221577;28;20122;-72
2023/06/28 11:21:23;;;;;;;14.50;8.40;;;;;;;26.79;100.00;101765.56;5221996;28;20025;-72
2023/06/28 11:23:56;;;;;;;18.00;7.97;;;;;;;26.79;100.00;101773.81;5221675;28;20563;-72
2023/06/28 11:26:46;;;;;;;16.95;8.18;;;;;;;26.50;100.00;101768.41;5221621;28;20028;-72
2023/06/28 11:29:18;;;;;;;16.08;8.20;;;;;;;26.60;100.00;101768.59;5220428;28;20053;-72